sensor_id;sensor_type;location;lat;lon;timestamp;P1;durP1;ratioP1;P2;durP2;ratioP2
55362;SDS011;41244;49.242;9.060;2023-03-23T00:00:59;4.32;;;2.53;;
55362;SDS011;41244;49.242;9.060;2023-03-23T00:03:25;5.50;;;2.50;;
55362;SDS011;41244;49.242;9.060;2023-03-23T00:05:53;3.80;;;2.10;;
55362;SDS011;41244;49.242;9.060;2023-03-23T00:08:24;2.50;;;2.30;;
55362;SDS011;41244;49.242;9.060;2023-03-23T00:10:51;2.38;;;2.17;;
55362;SDS011;41244;49.242;9.060;2023-03-23T00:13:17;2.28;;;2.08;;
55362;SDS011;41244;49.242;9.060;2023-03-23T00:15:45;7.40;;;2.42;;
55362;SDS011;41244;49.242;9.060;2023-03-23T00:18:13;2.22;;;2.03;;
55362;SDS011;41244;49.242;9.060;2023-03-23T00:20:47;3.72;;;2.30;;
55362;SDS011;41244;49.242;9.060;2023-03-23T00:23:18;3.72;;;2.28;;
55362;SDS011;41244;49.242;9.060;2023-03-23T00:25:48;2.65;;;2.20;;
55362;SDS011;41244;49.242;9.060;2023-03-23T00:28:22;3.17;;;2.30;;
55362;SDS011;41244;49.242;9.060;2023-03-23T00:31:01;3.10;;;2.33;;
55362;SDS011;41244;49.242;9.060;2023-03-23T00:33:31;5.30;;;3.10;;
55362;SDS011;41244;49.242;9.060;2023-03-23T00:36:02;4.63;;;3.80;;
55362;SDS011;41244;49.242;9.060;2023-03-23T00:38:30;2.83;;;2.63;;
55362;SDS011;41244;49.242;9.060;2023-03-23T00:40:56;3.05;;;2.45;;
55362;SDS011;41244;49.242;9.060;2023-03-23T00:43:23;2.50;;;2.30;;
55362;SDS011;41244;49.242;9.060;2023-03-23T00:45:49;3.25;;;2.30;;
55362;SDS011;41244;49.242;9.060;2023-03-23T00:48:19;2.30;;;2.08;;
55362;SDS011;41244;49.242;9.060;2023-03-23T00:50:45;2.40;;;2.20;;
55362;SDS011;41244;49.242;9.060;2023-03-23T00:53:11;2.83;;;2.17;;
55362;SDS011;41244;49.242;9.060;2023-03-23T00:55:37;2.35;;;2.00;;
55362;SDS011;41244;49.242;9.060;2023-03-23T00:58:06;3.92;;;2.35;;
55362;SDS011;41244;49.242;9.060;2023-03-23T01:00:31;3.17;;;2.10;;
55362;SDS011;41244;49.242;9.060;2023-03-23T01:02:57;5.30;;;2.33;;
55362;SDS011;41244;49.242;9.060;2023-03-23T01:05:23;3.20;;;2.20;;
55362;SDS011;41244;49.242;9.060;2023-03-23T01:07:49;3.20;;;2.10;;
55362;SDS011;41244;49.242;9.060;2023-03-23T01:10:14;3.53;;;2.20;;
55362;SDS011;41244;49.242;9.060;2023-03-23T01:12:45;3.72;;;2.40;;
55362;SDS011;41244;49.242;9.060;2023-03-23T01:15:15;2.40;;;2.20;;
55362;SDS011;41244;49.242;9.060;2023-03-23T01:17:43;3.08;;;2.65;;
55362;SDS011;41244;49.242;9.060;2023-03-23T01:20:11;2.42;;;2.20;;
55362;SDS011;41244;49.242;9.060;2023-03-23T01:22:39;2.40;;;2.20;;
55362;SDS011;41244;49.242;9.060;2023-03-23T01:25:06;2.78;;;2.10;;
55362;SDS011;41244;49.242;9.060;2023-03-23T01:27:34;2.42;;;2.22;;
55362;SDS011;41244;49.242;9.060;2023-03-23T01:30:00;3.28;;;2.35;;
55362;SDS011;41244;49.242;9.060;2023-03-23T01:32:26;3.97;;;2.45;;
55362;SDS011;41244;49.242;9.060;2023-03-23T01:34:53;2.65;;;2.30;;
55362;SDS011;41244;49.242;9.060;2023-03-23T01:37:19;2.58;;;2.35;;
55362;SDS011;41244;49.242;9.060;2023-03-23T01:39:45;2.92;;;2.40;;
55362;SDS011;41244;49.242;9.060;2023-03-23T01:42:11;3.08;;;2.30;;
55362;SDS011;41244;49.242;9.060;2023-03-23T01:47:03;5.40;;;2.97;;
55362;SDS011;41244;49.242;9.060;2023-03-23T01:49:29;13.20;;;3.70;;
55362;SDS011;41244;49.242;9.060;2023-03-23T01:52:01;13.63;;;3.10;;
55362;SDS011;41244;49.242;9.060;2023-03-23T01:54:31;11.98;;;3.47;;
55362;SDS011;41244;49.242;9.060;2023-03-23T01:56:59;7.65;;;3.08;;
55362;SDS011;41244;49.242;9.060;2023-03-23T01:59:26;3.90;;;2.33;;
55362;SDS011;41244;49.242;9.060;2023-03-23T02:01:53;4.30;;;2.70;;
55362;SDS011;41244;49.242;9.060;2023-03-23T02:04:20;2.83;;;2.53;;
55362;SDS011;41244;49.242;9.060;2023-03-23T02:06:49;3.83;;;2.70;;
55362;SDS011;41244;49.242;9.060;2023-03-23T02:09:16;2.50;;;2.30;;
55362;SDS011;41244;49.242;9.060;2023-03-23T02:11:42;2.53;;;2.30;;
55362;SDS011;41244;49.242;9.060;2023-03-23T02:14:09;2.90;;;2.42;;
55362;SDS011;41244;49.242;9.060;2023-03-23T02:16:51;6.22;;;2.42;;
55362;SDS011;41244;49.242;9.060;2023-03-23T02:28:16;2.67;;;2.40;;
55362;SDS011;41244;49.242;9.060;2023-03-23T02:34:27;3.58;;;2.60;;
55362;SDS011;41244;49.242;9.060;2023-03-23T02:39:40;3.25;;;2.40;;
55362;SDS011;41244;49.242;9.060;2023-03-23T02:42:16;4.05;;;2.50;;
55362;SDS011;41244;49.242;9.060;2023-03-23T02:44:47;2.83;;;2.47;;
55362;SDS011;41244;49.242;9.060;2023-03-23T02:47:18;3.03;;;2.72;;
55362;SDS011;41244;49.242;9.060;2023-03-23T02:49:48;4.03;;;2.70;;
55362;SDS011;41244;49.242;9.060;2023-03-23T02:52:21;2.72;;;2.53;;
55362;SDS011;41244;49.242;9.060;2023-03-23T02:54:51;2.75;;;2.55;;
55362;SDS011;41244;49.242;9.060;2023-03-23T02:57:18;6.45;;;3.13;;
55362;SDS011;41244;49.242;9.060;2023-03-23T02:59:45;3.33;;;2.70;;
55362;SDS011;41244;49.242;9.060;2023-03-23T03:02:16;2.72;;;2.53;;
55362;SDS011;41244;49.242;9.060;2023-03-23T03:04:48;2.92;;;2.63;;
55362;SDS011;41244;49.242;9.060;2023-03-23T03:10:34;3.70;;;2.67;;
55362;SDS011;41244;49.242;9.060;2023-03-23T03:13:32;2.72;;;2.53;;
55362;SDS011;41244;49.242;9.060;2023-03-23T03:19:02;3.25;;;2.80;;
55362;SDS011;41244;49.242;9.060;2023-03-23T03:21:38;4.13;;;2.80;;
55362;SDS011;41244;49.242;9.060;2023-03-23T03:24:08;2.72;;;2.45;;
55362;SDS011;41244;49.242;9.060;2023-03-23T03:26:37;3.00;;;2.70;;
55362;SDS011;41244;49.242;9.060;2023-03-23T03:29:06;3.28;;;2.70;;
55362;SDS011;41244;49.242;9.060;2023-03-23T03:31:34;2.90;;;2.63;;
55362;SDS011;41244;49.242;9.060;2023-03-23T03:34:03;2.83;;;2.47;;
55362;SDS011;41244;49.242;9.060;2023-03-23T03:36:31;4.00;;;3.00;;
55362;SDS011;41244;49.242;9.060;2023-03-23T03:39:06;3.85;;;3.03;;
55362;SDS011;41244;49.242;9.060;2023-03-23T03:41:34;3.35;;;2.70;;
55362;SDS011;41244;49.242;9.060;2023-03-23T03:44:01;3.22;;;2.80;;
55362;SDS011;41244;49.242;9.060;2023-03-23T03:46:28;3.20;;;2.90;;
55362;SDS011;41244;49.242;9.060;2023-03-23T03:48:56;3.28;;;2.58;;
55362;SDS011;41244;49.242;9.060;2023-03-23T03:51:26;3.80;;;2.85;;
55362;SDS011;41244;49.242;9.060;2023-03-23T03:53:52;3.47;;;2.90;;
55362;SDS011;41244;49.242;9.060;2023-03-23T03:56:18;3.05;;;2.75;;
55362;SDS011;41244;49.242;9.060;2023-03-23T03:58:44;4.82;;;2.63;;
55362;SDS011;41244;49.242;9.060;2023-03-23T04:01:13;4.30;;;3.00;;
55362;SDS011;41244;49.242;9.060;2023-03-23T04:03:40;5.90;;;2.88;;
55362;SDS011;41244;49.242;9.060;2023-03-23T04:06:06;3.92;;;2.80;;
55362;SDS011;41244;49.242;9.060;2023-03-23T04:08:34;9.60;;;2.95;;
55362;SDS011;41244;49.242;9.060;2023-03-23T04:11:06;16.20;;;3.40;;
55362;SDS011;41244;49.242;9.060;2023-03-23T04:13:38;38.00;;;4.10;;
55362;SDS011;41244;49.242;9.060;2023-03-23T04:16:05;17.42;;;3.70;;
55362;SDS011;41244;49.242;9.060;2023-03-23T04:18:32;8.50;;;3.22;;
55362;SDS011;41244;49.242;9.060;2023-03-23T04:20:59;12.38;;;3.75;;
55362;SDS011;41244;49.242;9.060;2023-03-23T04:23:27;18.60;;;4.13;;
55362;SDS011;41244;49.242;9.060;2023-03-23T04:25:56;11.10;;;3.13;;
55362;SDS011;41244;49.242;9.060;2023-03-23T04:28:23;10.75;;;3.45;;
55362;SDS011;41244;49.242;9.060;2023-03-23T04:30:51;11.13;;;3.30;;
55362;SDS011;41244;49.242;9.060;2023-03-23T04:33:27;12.50;;;3.30;;
55362;SDS011;41244;49.242;9.060;2023-03-23T04:35:55;8.50;;;3.22;;
55362;SDS011;41244;49.242;9.060;2023-03-23T04:38:26;9.93;;;3.17;;
55362;SDS011;41244;49.242;9.060;2023-03-23T04:40:53;22.98;;;3.95;;
55362;SDS011;41244;49.242;9.060;2023-03-23T04:43:20;17.02;;;3.63;;
55362;SDS011;41244;49.242;9.060;2023-03-23T04:45:54;12.68;;;3.25;;
55362;SDS011;41244;49.242;9.060;2023-03-23T04:48:25;15.13;;;3.78;;
55362;SDS011;41244;49.242;9.060;2023-03-23T04:50:53;10.77;;;3.22;;
55362;SDS011;41244;49.242;9.060;2023-03-23T04:53:19;11.05;;;3.45;;
55362;SDS011;41244;49.242;9.060;2023-03-23T04:55:46;8.82;;;3.08;;
55362;SDS011;41244;49.242;9.060;2023-03-23T04:58:13;5.10;;;3.13;;
55362;SDS011;41244;49.242;9.060;2023-03-23T05:00:39;4.85;;;2.90;;
55362;SDS011;41244;49.242;9.060;2023-03-23T05:03:15;10.32;;;3.58;;
55362;SDS011;41244;49.242;9.060;2023-03-23T05:05:44;15.48;;;3.53;;
55362;SDS011;41244;49.242;9.060;2023-03-23T05:08:17;31.83;;;4.47;;
55362;SDS011;41244;49.242;9.060;2023-03-23T05:10:54;14.05;;;3.40;;
55362;SDS011;41244;49.242;9.060;2023-03-23T05:13:22;13.25;;;3.35;;
55362;SDS011;41244;49.242;9.060;2023-03-23T05:15:48;9.82;;;3.33;;
55362;SDS011;41244;49.242;9.060;2023-03-23T05:18:14;12.52;;;3.70;;
55362;SDS011;41244;49.242;9.060;2023-03-23T05:20:40;19.40;;;5.03;;
55362;SDS011;41244;49.242;9.060;2023-03-23T05:23:07;14.73;;;4.50;;
55362;SDS011;41244;49.242;9.060;2023-03-23T05:25:37;5.55;;;3.30;;
55362;SDS011;41244;49.242;9.060;2023-03-23T05:28:07;18.70;;;4.70;;
55362;SDS011;41244;49.242;9.060;2023-03-23T05:30:35;54.97;;;5.75;;
55362;SDS011;41244;49.242;9.060;2023-03-23T05:33:03;24.38;;;4.38;;
55362;SDS011;41244;49.242;9.060;2023-03-23T05:35:29;20.52;;;4.10;;
55362;SDS011;41244;49.242;9.060;2023-03-23T05:37:55;43.00;;;7.18;;
55362;SDS011;41244;49.242;9.060;2023-03-23T05:40:25;57.08;;;7.30;;
55362;SDS011;41244;49.242;9.060;2023-03-23T05:42:51;19.35;;;5.05;;
55362;SDS011;41244;49.242;9.060;2023-03-23T05:45:17;11.65;;;3.65;;
55362;SDS011;41244;49.242;9.060;2023-03-23T05:47:44;7.50;;;3.03;;
55362;SDS011;41244;49.242;9.060;2023-03-23T05:50:10;16.30;;;4.47;;
55362;SDS011;41244;49.242;9.060;2023-03-23T05:52:37;5.20;;;3.03;;
55362;SDS011;41244;49.242;9.060;2023-03-23T05:55:04;6.72;;;2.85;;
55362;SDS011;41244;49.242;9.060;2023-03-23T05:57:32;5.72;;;3.30;;
55362;SDS011;41244;49.242;9.060;2023-03-23T05:59:59;6.55;;;3.15;;
55362;SDS011;41244;49.242;9.060;2023-03-23T06:02:25;3.60;;;2.90;;
55362;SDS011;41244;49.242;9.060;2023-03-23T06:04:54;3.55;;;2.90;;
55362;SDS011;41244;49.242;9.060;2023-03-23T06:07:23;4.20;;;2.92;;
55362;SDS011;41244;49.242;9.060;2023-03-23T06:09:50;7.45;;;3.33;;
55362;SDS011;41244;49.242;9.060;2023-03-23T06:12:16;3.50;;;2.90;;
55362;SDS011;41244;49.242;9.060;2023-03-23T06:14:45;4.63;;;3.03;;
55362;SDS011;41244;49.242;9.060;2023-03-23T06:17:13;4.63;;;3.08;;
55362;SDS011;41244;49.242;9.060;2023-03-23T06:19:41;6.05;;;3.03;;
55362;SDS011;41244;49.242;9.060;2023-03-23T06:22:07;4.18;;;2.88;;
55362;SDS011;41244;49.242;9.060;2023-03-23T06:24:32;3.83;;;2.72;;
55362;SDS011;41244;49.242;9.060;2023-03-23T06:26:59;5.22;;;3.25;;
55362;SDS011;41244;49.242;9.060;2023-03-23T06:29:25;7.35;;;2.85;;
55362;SDS011;41244;49.242;9.060;2023-03-23T06:31:52;4.75;;;3.65;;
55362;SDS011;41244;49.242;9.060;2023-03-23T06:34:23;5.60;;;3.63;;
55362;SDS011;41244;49.242;9.060;2023-03-23T06:36:49;12.32;;;4.13;;
55362;SDS011;41244;49.242;9.060;2023-03-23T06:39:15;5.10;;;3.95;;
55362;SDS011;41244;49.242;9.060;2023-03-23T06:41:41;5.88;;;3.40;;
55362;SDS011;41244;49.242;9.060;2023-03-23T06:44:07;4.45;;;3.47;;
55362;SDS011;41244;49.242;9.060;2023-03-23T06:46:33;4.03;;;3.45;;
55362;SDS011;41244;49.242;9.060;2023-03-23T06:48:59;4.57;;;2.58;;
55362;SDS011;41244;49.242;9.060;2023-03-23T06:51:25;3.33;;;2.78;;
55362;SDS011;41244;49.242;9.060;2023-03-23T06:53:51;3.78;;;2.75;;
55362;SDS011;41244;49.242;9.060;2023-03-23T06:56:16;6.45;;;2.88;;
55362;SDS011;41244;49.242;9.060;2023-03-23T06:58:42;2.92;;;2.63;;
55362;SDS011;41244;49.242;9.060;2023-03-23T07:01:10;5.18;;;2.92;;
55362;SDS011;41244;49.242;9.060;2023-03-23T07:03:36;3.95;;;3.00;;
55362;SDS011;41244;49.242;9.060;2023-03-23T07:06:02;4.78;;;3.53;;
55362;SDS011;41244;49.242;9.060;2023-03-23T07:08:28;3.75;;;2.85;;
55362;SDS011;41244;49.242;9.060;2023-03-23T07:10:55;4.80;;;2.88;;
55362;SDS011;41244;49.242;9.060;2023-03-23T07:13:22;5.40;;;3.40;;
55362;SDS011;41244;49.242;9.060;2023-03-23T07:15:48;5.80;;;3.00;;
55362;SDS011;41244;49.242;9.060;2023-03-23T07:18:15;3.83;;;2.80;;
55362;SDS011;41244;49.242;9.060;2023-03-23T07:20:41;4.75;;;2.90;;
55362;SDS011;41244;49.242;9.060;2023-03-23T07:23:07;4.38;;;3.00;;
55362;SDS011;41244;49.242;9.060;2023-03-23T07:25:34;3.25;;;2.83;;
55362;SDS011;41244;49.242;9.060;2023-03-23T07:28:01;6.72;;;2.80;;
55362;SDS011;41244;49.242;9.060;2023-03-23T07:30:28;7.47;;;3.28;;
55362;SDS011;41244;49.242;9.060;2023-03-23T07:32:55;7.05;;;3.13;;
55362;SDS011;41244;49.242;9.060;2023-03-23T07:35:21;4.50;;;3.00;;
55362;SDS011;41244;49.242;9.060;2023-03-23T07:37:48;3.20;;;2.90;;
55362;SDS011;41244;49.242;9.060;2023-03-23T07:40:14;5.57;;;3.40;;
55362;SDS011;41244;49.242;9.060;2023-03-23T07:42:45;4.95;;;3.30;;
55362;SDS011;41244;49.242;9.060;2023-03-23T07:47:40;5.43;;;3.13;;
55362;SDS011;41244;49.242;9.060;2023-03-23T07:50:06;5.90;;;3.30;;
55362;SDS011;41244;49.242;9.060;2023-03-23T07:52:33;5.50;;;3.42;;
55362;SDS011;41244;49.242;9.060;2023-03-23T07:55:00;4.53;;;3.40;;
55362;SDS011;41244;49.242;9.060;2023-03-23T07:57:29;6.47;;;3.40;;
55362;SDS011;41244;49.242;9.060;2023-03-23T07:59:56;4.82;;;3.47;;
55362;SDS011;41244;49.242;9.060;2023-03-23T08:02:22;4.40;;;3.28;;
55362;SDS011;41244;49.242;9.060;2023-03-23T08:04:49;5.18;;;3.40;;
55362;SDS011;41244;49.242;9.060;2023-03-23T08:07:16;7.18;;;3.50;;
55362;SDS011;41244;49.242;9.060;2023-03-23T08:09:44;4.63;;;3.08;;
55362;SDS011;41244;49.242;9.060;2023-03-23T08:12:10;5.80;;;3.38;;
55362;SDS011;41244;49.242;9.060;2023-03-23T08:14:37;4.35;;;3.15;;
55362;SDS011;41244;49.242;9.060;2023-03-23T08:17:03;4.32;;;3.10;;
55362;SDS011;41244;49.242;9.060;2023-03-23T08:19:29;4.38;;;3.10;;
55362;SDS011;41244;49.242;9.060;2023-03-23T08:21:55;3.35;;;3.00;;
55362;SDS011;41244;49.242;9.060;2023-03-23T08:24:22;7.45;;;3.13;;
55362;SDS011;41244;49.242;9.060;2023-03-23T08:26:48;5.18;;;3.70;;
55362;SDS011;41244;49.242;9.060;2023-03-23T08:29:14;4.25;;;3.33;;
55362;SDS011;41244;49.242;9.060;2023-03-23T08:31:41;11.35;;;7.53;;
55362;SDS011;41244;49.242;9.060;2023-03-23T08:34:06;9.23;;;5.53;;
55362;SDS011;41244;49.242;9.060;2023-03-23T08:36:33;8.20;;;5.22;;
55362;SDS011;41244;49.242;9.060;2023-03-23T08:38:59;8.93;;;5.20;;
55362;SDS011;41244;49.242;9.060;2023-03-23T08:41:25;5.03;;;3.80;;
55362;SDS011;41244;49.242;9.060;2023-03-23T08:43:51;5.72;;;3.50;;
55362;SDS011;41244;49.242;9.060;2023-03-23T08:46:17;4.50;;;3.55;;
55362;SDS011;41244;49.242;9.060;2023-03-23T08:48:44;7.18;;;4.88;;
55362;SDS011;41244;49.242;9.060;2023-03-23T08:51:11;5.50;;;4.05;;
55362;SDS011;41244;49.242;9.060;2023-03-23T08:53:38;5.25;;;3.67;;
55362;SDS011;41244;49.242;9.060;2023-03-23T08:56:05;5.05;;;3.80;;
55362;SDS011;41244;49.242;9.060;2023-03-23T08:58:33;4.28;;;3.30;;
55362;SDS011;41244;49.242;9.060;2023-03-23T09:01:00;7.13;;;3.88;;
55362;SDS011;41244;49.242;9.060;2023-03-23T09:03:27;6.28;;;5.05;;
55362;SDS011;41244;49.242;9.060;2023-03-23T09:05:53;5.20;;;3.72;;
55362;SDS011;41244;49.242;9.060;2023-03-23T09:08:24;4.05;;;3.50;;
55362;SDS011;41244;49.242;9.060;2023-03-23T09:10:50;19.90;;;15.45;;
55362;SDS011;41244;49.242;9.060;2023-03-23T09:13:16;5.97;;;4.50;;
55362;SDS011;41244;49.242;9.060;2023-03-23T09:15:42;5.05;;;3.70;;
55362;SDS011;41244;49.242;9.060;2023-03-23T09:18:07;4.30;;;3.78;;
55362;SDS011;41244;49.242;9.060;2023-03-23T09:20:34;4.82;;;3.78;;
55362;SDS011;41244;49.242;9.060;2023-03-23T09:23:02;4.05;;;3.50;;
55362;SDS011;41244;49.242;9.060;2023-03-23T09:25:28;5.18;;;3.70;;
55362;SDS011;41244;49.242;9.060;2023-03-23T09:27:55;5.85;;;3.58;;
55362;SDS011;41244;49.242;9.060;2023-03-23T09:30:23;6.95;;;4.25;;
55362;SDS011;41244;49.242;9.060;2023-03-23T09:32:52;6.00;;;3.35;;
55362;SDS011;41244;49.242;9.060;2023-03-23T09:35:18;3.70;;;3.10;;
55362;SDS011;41244;49.242;9.060;2023-03-23T09:37:46;6.25;;;3.80;;
55362;SDS011;41244;49.242;9.060;2023-03-23T09:40:15;5.47;;;3.47;;
55362;SDS011;41244;49.242;9.060;2023-03-23T09:54:19;8.30;;;4.40;;
55362;SDS011;41244;49.242;9.060;2023-03-23T09:57:19;5.20;;;3.90;;
55362;SDS011;41244;49.242;9.060;2023-03-23T09:59:58;4.20;;;3.80;;
55362;SDS011;41244;49.242;9.060;2023-03-23T10:08:08;5.30;;;3.72;;
55362;SDS011;41244;49.242;9.060;2023-03-23T10:10:52;5.43;;;3.95;;
55362;SDS011;41244;49.242;9.060;2023-03-23T10:16:33;4.85;;;4.10;;
55362;SDS011;41244;49.242;9.060;2023-03-23T10:22:32;4.70;;;4.13;;
55362;SDS011;41244;49.242;9.060;2023-03-23T10:30:22;6.03;;;4.50;;
55362;SDS011;41244;49.242;9.060;2023-03-23T10:33:08;6.15;;;4.38;;
55362;SDS011;41244;49.242;9.060;2023-03-23T10:39:02;5.30;;;4.53;;
55362;SDS011;41244;49.242;9.060;2023-03-23T10:41:34;12.35;;;6.97;;
55362;SDS011;41244;49.242;9.060;2023-03-23T10:44:00;7.03;;;5.40;;
55362;SDS011;41244;49.242;9.060;2023-03-23T10:46:30;8.90;;;4.75;;
55362;SDS011;41244;49.242;9.060;2023-03-23T10:49:14;5.57;;;4.40;;
55362;SDS011;41244;49.242;9.060;2023-03-23T10:52:00;5.43;;;4.38;;
55362;SDS011;41244;49.242;9.060;2023-03-23T10:54:32;7.10;;;4.35;;
55362;SDS011;41244;49.242;9.060;2023-03-23T10:57:21;6.82;;;4.55;;
55362;SDS011;41244;49.242;9.060;2023-03-23T11:00:00;5.93;;;4.35;;
55362;SDS011;41244;49.242;9.060;2023-03-23T11:02:47;7.75;;;4.15;;
55362;SDS011;41244;49.242;9.060;2023-03-23T11:08:18;4.53;;;4.13;;
55362;SDS011;41244;49.242;9.060;2023-03-23T11:10:48;7.10;;;4.15;;
55362;SDS011;41244;49.242;9.060;2023-03-23T11:13:26;6.28;;;3.70;;
55362;SDS011;41244;49.242;9.060;2023-03-23T11:18:26;8.50;;;4.30;;
55362;SDS011;41244;49.242;9.060;2023-03-23T11:21:01;5.05;;;3.42;;
55362;SDS011;41244;49.242;9.060;2023-03-23T11:23:30;6.60;;;3.45;;
55362;SDS011;41244;49.242;9.060;2023-03-23T11:26:13;5.35;;;3.80;;
55362;SDS011;41244;49.242;9.060;2023-03-23T11:28:55;4.60;;;3.40;;
55362;SDS011;41244;49.242;9.060;2023-03-23T11:34:13;4.35;;;3.55;;
55362;SDS011;41244;49.242;9.060;2023-03-23T11:37:02;4.97;;;3.70;;
55362;SDS011;41244;49.242;9.060;2023-03-23T11:39:48;5.65;;;3.47;;
55362;SDS011;41244;49.242;9.060;2023-03-23T11:42:23;6.57;;;4.60;;
55362;SDS011;41244;49.242;9.060;2023-03-23T11:48:29;4.85;;;3.55;;
55362;SDS011;41244;49.242;9.060;2023-03-23T11:51:17;4.32;;;3.42;;
55362;SDS011;41244;49.242;9.060;2023-03-23T11:54:21;4.07;;;3.55;;
55362;SDS011;41244;49.242;9.060;2023-03-23T11:57:08;4.97;;;3.10;;
55362;SDS011;41244;49.242;9.060;2023-03-23T11:59:37;4.07;;;3.20;;
55362;SDS011;41244;49.242;9.060;2023-03-23T12:10:44;4.13;;;2.95;;
55362;SDS011;41244;49.242;9.060;2023-03-23T12:16:35;5.13;;;3.47;;
55362;SDS011;41244;49.242;9.060;2023-03-23T12:22:06;5.00;;;3.20;;
55362;SDS011;41244;49.242;9.060;2023-03-23T12:25:15;3.80;;;3.40;;
55362;SDS011;41244;49.242;9.060;2023-03-23T12:33:29;3.40;;;2.72;;
55362;SDS011;41244;49.242;9.060;2023-03-23T12:39:02;3.58;;;3.20;;
55362;SDS011;41244;49.242;9.060;2023-03-23T12:42:19;3.88;;;3.10;;
55362;SDS011;41244;49.242;9.060;2023-03-23T12:44:53;4.07;;;3.25;;
55362;SDS011;41244;49.242;9.060;2023-03-23T12:47:46;3.67;;;3.03;;
55362;SDS011;41244;49.242;9.060;2023-03-23T12:50:36;3.83;;;3.30;;
55362;SDS011;41244;49.242;9.060;2023-03-23T12:53:26;3.97;;;3.40;;
55362;SDS011;41244;49.242;9.060;2023-03-23T12:56:14;4.90;;;3.20;;
55362;SDS011;41244;49.242;9.060;2023-03-23T12:58:48;4.28;;;3.42;;
55362;SDS011;41244;49.242;9.060;2023-03-23T13:01:24;5.32;;;3.47;;
55362;SDS011;41244;49.242;9.060;2023-03-23T13:04:17;3.80;;;3.40;;
55362;SDS011;41244;49.242;9.060;2023-03-23T13:06:47;3.88;;;3.45;;
55362;SDS011;41244;49.242;9.060;2023-03-23T13:09:19;5.80;;;4.72;;
55362;SDS011;41244;49.242;9.060;2023-03-23T13:12:12;10.63;;;6.40;;
55362;SDS011;41244;49.242;9.060;2023-03-23T13:14:47;3.83;;;3.30;;
55362;SDS011;41244;49.242;9.060;2023-03-23T13:17:24;3.80;;;3.10;;
55362;SDS011;41244;49.242;9.060;2023-03-23T13:28:46;3.60;;;3.30;;
55362;SDS011;41244;49.242;9.060;2023-03-23T13:31:23;3.58;;;2.97;;
55362;SDS011;41244;49.242;9.060;2023-03-23T13:39:47;4.20;;;3.40;;
55362;SDS011;41244;49.242;9.060;2023-03-23T13:42:24;4.18;;;3.45;;
55362;SDS011;41244;49.242;9.060;2023-03-23T13:47:35;4.30;;;3.67;;
55362;SDS011;41244;49.242;9.060;2023-03-23T13:55:19;5.63;;;3.20;;
55362;SDS011;41244;49.242;9.060;2023-03-23T14:05:51;9.35;;;3.80;;
55362;SDS011;41244;49.242;9.060;2023-03-23T14:10:56;9.20;;;3.70;;
55362;SDS011;41244;49.242;9.060;2023-03-23T14:13:42;5.70;;;3.90;;
55362;SDS011;41244;49.242;9.060;2023-03-23T14:16:21;6.20;;;4.53;;
55362;SDS011;41244;49.242;9.060;2023-03-23T14:18:55;6.00;;;3.75;;
55362;SDS011;41244;49.242;9.060;2023-03-23T14:21:33;5.40;;;3.38;;
55362;SDS011;41244;49.242;9.060;2023-03-23T14:24:05;4.00;;;3.28;;
55362;SDS011;41244;49.242;9.060;2023-03-23T14:26:38;6.68;;;3.88;;
55362;SDS011;41244;49.242;9.060;2023-03-23T14:29:05;9.48;;;3.83;;
55362;SDS011;41244;49.242;9.060;2023-03-23T14:31:31;3.75;;;3.45;;
55362;SDS011;41244;49.242;9.060;2023-03-23T14:34:01;4.97;;;3.40;;
55362;SDS011;41244;49.242;9.060;2023-03-23T14:36:31;11.95;;;4.03;;
55362;SDS011;41244;49.242;9.060;2023-03-23T14:41:47;6.28;;;3.78;;
55362;SDS011;41244;49.242;9.060;2023-03-23T14:44:16;10.18;;;3.92;;
55362;SDS011;41244;49.242;9.060;2023-03-23T14:47:09;8.07;;;3.72;;
55362;SDS011;41244;49.242;9.060;2023-03-23T14:49:44;5.45;;;3.80;;
55362;SDS011;41244;49.242;9.060;2023-03-23T14:52:11;9.45;;;4.13;;
55362;SDS011;41244;49.242;9.060;2023-03-23T14:54:43;9.52;;;4.20;;
55362;SDS011;41244;49.242;9.060;2023-03-23T14:57:11;6.90;;;3.60;;
55362;SDS011;41244;49.242;9.060;2023-03-23T14:59:52;6.50;;;4.03;;
55362;SDS011;41244;49.242;9.060;2023-03-23T15:02:21;11.45;;;5.50;;
55362;SDS011;41244;49.242;9.060;2023-03-23T15:05:00;9.25;;;4.65;;
55362;SDS011;41244;49.242;9.060;2023-03-23T15:07:34;10.82;;;4.38;;
55362;SDS011;41244;49.242;9.060;2023-03-23T15:10:05;12.95;;;4.75;;
55362;SDS011;41244;49.242;9.060;2023-03-23T15:12:32;16.77;;;5.82;;
55362;SDS011;41244;49.242;9.060;2023-03-23T15:15:01;11.45;;;4.57;;
55362;SDS011;41244;49.242;9.060;2023-03-23T15:17:31;10.63;;;4.65;;
55362;SDS011;41244;49.242;9.060;2023-03-23T15:20:07;11.32;;;6.03;;
55362;SDS011;41244;49.242;9.060;2023-03-23T15:22:36;9.35;;;5.90;;
55362;SDS011;41244;49.242;9.060;2023-03-23T15:25:12;13.98;;;6.45;;
55362;SDS011;41244;49.242;9.060;2023-03-23T15:27:54;12.15;;;8.52;;
55362;SDS011;41244;49.242;9.060;2023-03-23T15:32:47;9.73;;;5.20;;
55362;SDS011;41244;49.242;9.060;2023-03-23T15:35:23;11.07;;;5.20;;
55362;SDS011;41244;49.242;9.060;2023-03-23T15:38:12;8.20;;;4.50;;
55362;SDS011;41244;49.242;9.060;2023-03-23T15:40:57;14.48;;;4.90;;
55362;SDS011;41244;49.242;9.060;2023-03-23T15:43:27;9.38;;;5.35;;
55362;SDS011;41244;49.242;9.060;2023-03-23T15:48:51;14.40;;;6.50;;
55362;SDS011;41244;49.242;9.060;2023-03-23T15:51:19;12.82;;;5.10;;
55362;SDS011;41244;49.242;9.060;2023-03-23T15:53:51;9.13;;;4.80;;
55362;SDS011;41244;49.242;9.060;2023-03-23T15:56:18;12.13;;;5.38;;
55362;SDS011;41244;49.242;9.060;2023-03-23T15:58:44;26.70;;;5.53;;
55362;SDS011;41244;49.242;9.060;2023-03-23T16:01:12;16.98;;;5.25;;
55362;SDS011;41244;49.242;9.060;2023-03-23T16:04:00;7.40;;;5.32;;
55362;SDS011;41244;49.242;9.060;2023-03-23T16:06:38;13.50;;;5.43;;
55362;SDS011;41244;49.242;9.060;2023-03-23T16:09:04;7.93;;;5.05;;
55362;SDS011;41244;49.242;9.060;2023-03-23T16:11:31;7.60;;;5.10;;
55362;SDS011;41244;49.242;9.060;2023-03-23T16:13:58;12.90;;;5.57;;
55362;SDS011;41244;49.242;9.060;2023-03-23T16:16:38;6.70;;;4.97;;
55362;SDS011;41244;49.242;9.060;2023-03-23T16:19:07;6.57;;;5.03;;
55362;SDS011;41244;49.242;9.060;2023-03-23T16:21:37;5.60;;;5.00;;
55362;SDS011;41244;49.242;9.060;2023-03-23T16:24:03;6.45;;;5.07;;
55362;SDS011;41244;49.242;9.060;2023-03-23T16:26:28;11.55;;;5.32;;
55362;SDS011;41244;49.242;9.060;2023-03-23T16:28:54;7.28;;;5.32;;
55362;SDS011;41244;49.242;9.060;2023-03-23T16:31:20;8.25;;;5.25;;
55362;SDS011;41244;49.242;9.060;2023-03-23T16:33:46;5.68;;;4.68;;
55362;SDS011;41244;49.242;9.060;2023-03-23T16:36:12;7.95;;;4.35;;
55362;SDS011;41244;49.242;9.060;2023-03-23T16:38:39;9.93;;;4.72;;
55362;SDS011;41244;49.242;9.060;2023-03-23T16:41:05;4.93;;;4.38;;
55362;SDS011;41244;49.242;9.060;2023-03-23T16:43:32;9.02;;;5.00;;
55362;SDS011;41244;49.242;9.060;2023-03-23T16:45:58;7.57;;;4.93;;
55362;SDS011;41244;49.242;9.060;2023-03-23T16:48:24;9.95;;;5.25;;
55362;SDS011;41244;49.242;9.060;2023-03-23T16:50:50;8.40;;;4.70;;
55362;SDS011;41244;49.242;9.060;2023-03-23T16:53:18;9.95;;;4.43;;
55362;SDS011;41244;49.242;9.060;2023-03-23T16:55:44;6.72;;;4.85;;
55362;SDS011;41244;49.242;9.060;2023-03-23T16:58:12;6.38;;;4.78;;
55362;SDS011;41244;49.242;9.060;2023-03-23T17:00:40;7.25;;;5.78;;
55362;SDS011;41244;49.242;9.060;2023-03-23T17:03:06;8.80;;;6.72;;
55362;SDS011;41244;49.242;9.060;2023-03-23T17:05:33;10.55;;;6.88;;
55362;SDS011;41244;49.242;9.060;2023-03-23T17:08:00;8.18;;;6.22;;
55362;SDS011;41244;49.242;9.060;2023-03-23T17:10:27;6.13;;;5.53;;
55362;SDS011;41244;49.242;9.060;2023-03-23T17:12:54;6.90;;;5.15;;
55362;SDS011;41244;49.242;9.060;2023-03-23T17:15:20;7.30;;;5.22;;
55362;SDS011;41244;49.242;9.060;2023-03-23T17:17:48;7.32;;;4.90;;
55362;SDS011;41244;49.242;9.060;2023-03-23T17:20:14;6.10;;;5.22;;